createdAt,value
2022-08-05T00:01:35.853Z,98093.50
2022-08-05T00:04:16.344Z,98088.75
2022-08-05T00:06:44.552Z,98091.53
2022-08-05T00:09:19.654Z,98092.69
2022-08-05T00:11:55.875Z,98091.06
2022-08-05T00:14:29.218Z,98083.88
2022-08-05T00:17:01.722Z,98083.13
2022-08-05T00:19:33.683Z,98082.22
2022-08-05T00:22:12.089Z,98079.03
2022-08-05T00:24:42.366Z,98074.69
2022-08-05T00:27:16.778Z,98081.38
2022-08-05T00:29:45.542Z,98087.63
2022-08-05T00:32:15.418Z,98080.47
2022-08-05T00:35:03.713Z,98089.16
2022-08-05T00:37:51.358Z,98078.81
2022-08-05T00:40:28.241Z,98074.84
2022-08-05T00:42:59.569Z,98073.31
2022-08-05T00:45:38.848Z,98074.44
2022-08-05T00:48:12.067Z,98074.81
2022-08-05T00:50:42.025Z,98069.28
2022-08-05T00:54:01.063Z,98068.88
2022-08-05T00:56:01.482Z,98062.59
2022-08-05T00:58:29.569Z,98065.78
2022-08-05T01:00:57.574Z,98066.56
2022-08-05T01:03:30.940Z,98058.72
2022-08-05T01:06:05.512Z,98062.66
2022-08-05T01:08:43.408Z,98054.78
2022-08-05T01:11:22.100Z,98056.69
2022-08-05T01:14:03.842Z,98048.00
2022-08-05T01:16:48.500Z,98048.78
2022-08-05T01:19:57.058Z,98047.13
2022-08-05T01:22:30.814Z,98046.31
2022-08-05T01:25:39.764Z,98051.38
2022-08-05T01:28:28.585Z,98045.44
2022-08-05T01:31:03.019Z,98044.25
2022-08-05T01:33:35.954Z,98045.31
2022-08-05T01:36:13.041Z,98039.00
2022-08-05T01:38:49.629Z,98032.78
2022-08-05T01:41:22.097Z,98035.84
2022-08-05T01:43:53.280Z,98027.22
2022-08-05T01:46:42.352Z,98031.94
2022-08-05T01:49:23.157Z,98025.69
2022-08-05T01:51:55.130Z,98032.47
2022-08-05T01:54:27.435Z,98032.13
2022-08-05T01:58:11.255Z,98038.47
2022-08-05T01:59:48.762Z,98031.41
2022-08-05T02:02:19.559Z,98024.72
2022-08-05T02:04:57.981Z,98020.34
2022-08-05T02:07:26.281Z,98027.50
2022-08-05T02:09:58.910Z,98020.84
2022-08-05T02:12:35.378Z,98015.25
2022-08-05T02:15:12.254Z,98021.84
2022-08-05T02:18:33.179Z,98016.69
2022-08-05T02:20:46.950Z,98020.88
2022-08-05T02:23:16.908Z,98024.81
2022-08-05T02:25:49.079Z,98015.75
2022-08-05T02:28:29.297Z,98018.13
2022-08-05T02:31:04.145Z,98017.78
2022-08-05T02:33:38.794Z,98013.88
2022-08-05T02:36:13.550Z,98020.94
2022-08-05T02:38:52.950Z,98008.78
2022-08-05T02:41:28.322Z,98015.44
2022-08-05T02:44:11.903Z,98010.38
2022-08-05T02:46:53.779Z,98009.97
2022-08-05T02:49:36.586Z,98015.47
2022-08-05T02:52:11.431Z,98008.38
2022-08-05T02:54:51.144Z,98009.84
2022-08-05T02:58:10.505Z,98010.19
2022-08-05T03:00:13.252Z,98002.31
2022-08-05T03:02:44.857Z,98001.06
2022-08-05T03:05:14.717Z,97997.50
2022-08-05T03:08:01.112Z,97999.44
2022-08-05T03:10:32.181Z,97984.50
2022-08-05T03:15:28.421Z,98007.78
2022-08-05T03:17:58.121Z,98004.69
2022-08-05T03:20:27.819Z,98002.78
2022-08-05T03:22:57.770Z,98006.72
2022-08-05T03:25:33.700Z,98001.19
2022-08-05T03:28:18.519Z,98001.94
2022-08-05T03:30:48.703Z,98004.22
2022-08-05T03:33:18.893Z,97988.38
2022-08-05T03:35:48.358Z,97998.94
2022-08-05T03:38:17.911Z,98005.91
2022-08-05T03:41:03.996Z,97995.25
2022-08-05T03:44:08.433Z,98009.06
2022-08-05T03:46:29.946Z,98000.09
2022-08-05T03:49:01.862Z,98007.50
2022-08-05T03:52:49.112Z,97995.69
2022-08-05T03:55:54.776Z,97998.41
2022-08-05T03:57:21.754Z,97990.50
2022-08-05T04:00:12.358Z,98005.16
2022-08-05T04:02:58.019Z,98004.75
2022-08-05T04:05:33.843Z,98002.47
2022-08-05T04:08:05.538Z,97992.31
2022-08-05T04:10:38.368Z,97998.31
2022-08-05T04:13:07.911Z,98001.19
2022-08-05T04:15:36.092Z,97996.56
2022-08-05T04:18:06.805Z,97995.88
2022-08-05T04:20:37.209Z,97992.84
2022-08-05T04:23:05.305Z,98005.44
2022-08-05T04:25:57.458Z,98004.69
2022-08-05T04:28:30.640Z,98000.84
2022-08-05T04:31:00.971Z,97996.91
2022-08-05T04:33:54.924Z,98008.38
2022-08-05T04:36:49.626Z,98007.63
2022-08-05T04:39:08.116Z,98006.59
2022-08-05T04:41:37.275Z,98006.63
2022-08-05T04:44:08.969Z,98012.97
2022-08-05T04:46:38.727Z,98008.28
2022-08-05T04:49:12.352Z,98001.25
2022-08-05T04:51:45.178Z,98004.84
2022-08-05T04:54:14.549Z,97993.81
2022-08-05T04:56:42.546Z,97999.38
2022-08-05T04:59:22.315Z,98000.97
2022-08-05T05:02:08.031Z,98003.81
2022-08-05T05:04:44.187Z,98010.13
2022-08-05T05:07:18.117Z,98002.22
2022-08-05T05:09:46.658Z,98004.63
2022-08-05T05:12:14.946Z,98010.94
2022-08-05T05:14:50.846Z,98006.59
2022-08-05T05:17:23.727Z,98005.38
2022-08-05T05:19:54.521Z,98004.59
2022-08-05T05:22:26.125Z,98004.59
2022-08-05T05:24:58.466Z,98007.75
2022-08-05T05:27:38.460Z,97997.47
2022-08-05T05:30:15.567Z,98006.94
2022-08-05T05:33:00.455Z,98010.03
2022-08-05T05:35:34.437Z,98014.72
2022-08-05T05:38:09.488Z,98009.16
2022-08-05T05:40:50.029Z,98009.53
2022-08-05T05:43:21.858Z,98008.66
2022-08-05T05:45:55.542Z,98011.38
2022-08-05T05:48:27.533Z,98013.72
2022-08-05T05:50:55.729Z,98016.03
2022-08-05T05:53:24.846Z,98022.25
2022-08-05T05:56:01.299Z,98024.97
2022-08-05T05:58:32.209Z,98015.06
2022-08-05T06:01:13.135Z,98019.81
2022-08-05T06:04:01.581Z,98017.38
2022-08-05T06:06:33.199Z,98017.34
2022-08-05T06:09:05.631Z,98015.28
2022-08-05T06:11:39.334Z,98012.28
2022-08-05T06:14:07.429Z,98012.97
2022-08-05T06:16:37.129Z,98023.75
2022-08-05T06:19:07.589Z,98020.44
2022-08-05T06:21:38.667Z,98018.88
2022-08-05T06:24:12.721Z,98021.88
2022-08-05T06:26:51.227Z,98028.78
2022-08-05T06:29:25.007Z,98018.03
2022-08-05T06:32:24.958Z,98009.38
2022-08-05T06:34:58.430Z,98025.09
2022-08-05T06:37:56.586Z,98024.94
2022-08-05T06:40:18.193Z,98025.00
2022-08-05T06:42:52.092Z,98027.66
2022-08-05T06:45:44.379Z,98018.50
2022-08-05T06:48:36.840Z,98034.78
2022-08-05T06:50:58.373Z,98024.81
2022-08-05T06:53:29.138Z,98026.84
2022-08-05T06:56:00.303Z,98029.16
2022-08-05T06:58:35.082Z,98032.31
2022-08-05T07:01:06.321Z,98027.56
2022-08-05T07:03:35.009Z,98013.50
2022-08-05T07:06:05.946Z,98025.56
2022-08-05T07:08:47.998Z,98011.81
2022-08-05T07:11:22.620Z,98021.91
2022-08-05T07:14:20.116Z,98018.88
2022-08-05T07:18:01.693Z,98018.50
2022-08-05T07:22:30.106Z,98021.41
2022-08-05T07:25:22.663Z,98013.50
2022-08-05T07:27:59.589Z,98018.94
2022-08-05T07:30:34.285Z,98023.03
2022-08-05T07:33:08.866Z,98015.44
2022-08-05T07:36:02.996Z,98023.44
2022-08-05T07:38:33.599Z,98027.56
2022-08-05T07:42:07.742Z,98024.91
2022-08-05T07:43:56.285Z,98027.06
2022-08-05T07:46:26.285Z,98037.00
2022-08-05T07:49:03.615Z,98033.66
2022-08-05T07:51:36.714Z,98026.25
2022-08-05T07:54:10.415Z,98023.06
2022-08-05T07:57:01.627Z,98026.72
2022-08-05T07:59:38.908Z,98029.19
2022-08-05T08:02:16.105Z,98027.97
2022-08-05T08:04:49.848Z,98017.75
2022-08-05T08:07:18.908Z,98015.84
2022-08-05T08:09:52.326Z,98018.41
2022-08-05T08:12:33.409Z,98023.53
2022-08-05T08:15:15.725Z,98018.13
2022-08-05T08:17:50.638Z,98021.31
2022-08-05T08:20:59.728Z,98022.44
2022-08-05T08:24:00.377Z,98027.56
2022-08-05T08:26:00.698Z,98025.00
2022-08-05T08:28:36.155Z,98025.06
2022-08-05T08:31:07.191Z,98032.94
2022-08-05T08:33:37.950Z,98038.78
2022-08-05T08:38:57.371Z,98046.84
2022-08-05T08:41:51.914Z,98031.72
2022-08-05T08:45:20.311Z,98033.88
2022-08-05T08:47:47.725Z,98023.69
2022-08-05T08:50:12.900Z,98029.38
2022-08-05T08:52:51.806Z,98031.94
2022-08-05T08:56:02.163Z,98025.94
2022-08-05T08:58:13.206Z,98035.22
2022-08-05T09:00:44.350Z,98033.56
2022-08-05T09:03:16.249Z,98023.84
2022-08-05T09:06:09.273Z,98038.66
2022-08-05T09:08:40.295Z,98036.19
2022-08-05T09:11:13.579Z,98032.41
2022-08-05T09:14:09.701Z,98031.41
2022-08-05T09:16:31.756Z,98034.97
2022-08-05T09:19:00.893Z,98026.09
2022-08-05T09:22:23.490Z,98023.63
2022-08-05T09:24:23.243Z,98019.31
2022-08-05T09:26:54.088Z,98021.84
2022-08-05T09:29:30.908Z,98016.44
2022-08-05T09:32:46.311Z,98012.84
2022-08-05T09:34:55.020Z,98007.84
2022-08-05T09:38:16.564Z,98011.91
2022-08-05T09:40:30.533Z,98013.91
2022-08-05T09:43:02.091Z,98002.38
2022-08-05T09:46:06.378Z,97998.53
2022-08-05T09:48:27.099Z,98003.09
2022-08-05T09:50:59.794Z,98005.25
2022-08-05T09:53:53.127Z,98009.84
2022-08-05T09:56:26.296Z,98000.66
2022-08-05T09:58:58.807Z,97995.13
2022-08-05T10:01:31.874Z,97995.91
2022-08-05T10:04:10.353Z,97996.03
2022-08-05T10:06:41.441Z,97998.59
2022-08-05T10:09:28.262Z,97998.00
2022-08-05T10:12:18.974Z,97995.59
2022-08-05T10:15:17.068Z,97998.75
2022-08-05T10:17:54.447Z,98000.03
2022-08-05T10:20:26.424Z,98006.94
2022-08-05T10:22:56.113Z,98000.25
2022-08-05T10:25:26.762Z,97997.16
2022-08-05T10:28:12.961Z,98005.47
2022-08-05T10:32:54.723Z,97995.88
2022-08-05T10:33:34.285Z,97998.28
2022-08-05T10:36:05.716Z,97998.88
2022-08-05T10:38:37.937Z,97999.97
2022-08-05T10:41:23.232Z,97993.59
2022-08-05T10:43:59.215Z,97997.72
2022-08-05T10:46:44.932Z,97981.94
2022-08-05T10:49:16.643Z,97986.31
2022-08-05T10:51:57.469Z,97991.34
2022-08-05T10:54:57.046Z,97982.91
2022-08-05T10:57:33.722Z,97981.34
2022-08-05T11:00:19.047Z,97982.59
2022-08-05T11:03:23.805Z,97970.13
2022-08-05T11:06:15.792Z,97979.44
2022-08-05T11:09:31.950Z,97977.22
2022-08-05T11:12:50.784Z,97974.59
2022-08-05T11:15:59.995Z,97971.84
2022-08-05T11:18:29.944Z,97962.38
2022-08-05T11:21:02.746Z,97967.72
2022-08-05T11:24:05.537Z,97967.31
2022-08-05T11:26:28.129Z,97972.75
2022-08-05T11:29:05.152Z,97970.22
2022-08-05T11:31:54.172Z,97970.69
2022-08-05T11:34:37.770Z,97974.38
2022-08-05T11:38:28.065Z,97973.00
2022-08-05T11:40:00.535Z,97962.28
2022-08-05T11:42:38.108Z,97963.84
2022-08-05T11:45:23.418Z,97962.06
2022-08-05T11:47:59.323Z,97971.03
2022-08-05T11:50:27.249Z,97971.53
2022-08-05T11:52:58.275Z,97974.66
2022-08-05T11:55:31.574Z,97968.47
2022-08-05T11:58:09.151Z,97969.78
2022-08-05T12:00:44.408Z,97970.47
2022-08-05T12:03:23.888Z,97972.25
2022-08-05T12:06:03.083Z,97973.84
2022-08-05T12:08:33.429Z,97966.59
2022-08-05T12:11:06.241Z,97957.88
2022-08-05T12:13:49.535Z,97958.97
2022-08-05T12:16:26.939Z,97950.03
2022-08-05T12:18:55.613Z,97960.81
2022-08-05T12:21:26.746Z,97958.47
2022-08-05T12:24:04.810Z,97957.59
2022-08-05T12:26:36.953Z,97953.84
2022-08-05T12:29:09.863Z,97955.72
2022-08-05T12:31:53.492Z,97942.75
2022-08-05T12:34:25.792Z,97943.78
2022-08-05T12:36:55.997Z,97945.84
2022-08-05T12:39:34.587Z,97945.03
2022-08-05T12:42:14.726Z,97946.84
2022-08-05T12:44:44.490Z,97941.19
2022-08-05T12:47:17.088Z,97947.56
2022-08-05T12:50:03.895Z,97944.97
2022-08-05T12:52:38.904Z,97939.50
2022-08-05T12:55:22.689Z,97952.81
2022-08-05T12:58:38.786Z,97946.34
2022-08-05T13:02:02.435Z,97941.00
2022-08-05T13:03:38.908Z,97942.56
2022-08-05T13:06:12.897Z,97937.75
2022-08-05T13:08:41.612Z,97940.38
2022-08-05T13:11:59.740Z,97939.66
2022-08-05T13:14:19.510Z,97939.59
2022-08-05T13:16:56.549Z,97940.88
2022-08-05T13:19:52.120Z,97925.09
2022-08-05T13:22:27.746Z,97930.25
2022-08-05T13:25:05.272Z,97932.38
2022-08-05T13:27:38.299Z,97924.59
2022-08-05T13:30:33.862Z,97924.31
2022-08-05T13:32:56.732Z,97921.66
2022-08-05T13:35:47.317Z,97922.88
2022-08-05T13:38:20.432Z,97914.06
2022-08-05T13:40:58.576Z,97928.22
2022-08-05T13:43:44.916Z,97918.38
2022-08-05T13:46:16.131Z,97910.09
2022-08-05T13:48:58.613Z,97909.22
2022-08-05T13:51:40.085Z,97914.84
2022-08-05T13:54:11.847Z,97908.63
2022-08-05T13:56:45.252Z,97905.88
2022-08-05T13:59:21.021Z,97908.53
2022-08-05T14:01:56.770Z,97900.50
2022-08-05T14:04:49.738Z,97911.28
2022-08-05T14:07:26.538Z,97895.41
2022-08-05T14:10:10.829Z,97897.25
2022-08-05T14:12:39.534Z,97893.59
2022-08-05T14:16:04.602Z,97895.53
2022-08-05T14:17:59.894Z,97889.03
2022-08-05T14:20:29.615Z,97890.69
2022-08-05T14:22:59.507Z,97891.84
2022-08-05T14:25:30.254Z,97885.34
2022-08-05T14:27:58.860Z,97881.72
2022-08-05T14:30:28.183Z,97879.00
2022-08-05T14:32:57.199Z,97878.44
2022-08-05T14:35:36.916Z,97876.19
2022-08-05T14:38:31.987Z,97872.63
2022-08-05T14:41:01.195Z,97874.47
2022-08-05T14:43:57.753Z,97874.03
2022-08-05T14:46:17.131Z,97880.56
2022-08-05T14:48:49.871Z,97875.94
2022-08-05T14:51:18.141Z,97875.03
2022-08-05T14:54:06.763Z,97870.69
2022-08-05T14:56:44.182Z,97869.44
2022-08-05T14:59:15.177Z,97871.97
2022-08-05T15:01:48.262Z,97871.13
2022-08-05T15:04:20.590Z,97862.84
2022-08-05T15:06:50.260Z,97867.78
2022-08-05T15:09:52.194Z,97865.97
2022-08-05T15:12:11.535Z,97857.59
2022-08-05T15:14:50.146Z,97862.91
2022-08-05T15:17:46.257Z,97861.81
2022-08-05T15:20:17.072Z,97851.31
2022-08-05T15:22:54.153Z,97859.28
2022-08-05T15:25:51.285Z,97859.28
2022-08-05T15:28:15.738Z,97855.91
2022-08-05T15:30:45.863Z,97853.94
2022-08-05T15:33:56.820Z,97853.44
2022-08-05T15:36:04.024Z,97844.94
2022-08-05T15:38:35.361Z,97845.94
2022-08-05T15:41:21.833Z,97844.00
2022-08-05T15:43:54.752Z,97847.56
2022-08-05T15:46:25.130Z,97854.63
2022-08-05T15:49:01.401Z,97850.09
2022-08-05T15:52:04.199Z,97846.44
2022-08-05T15:54:34.345Z,97843.59
2022-08-05T15:57:07.415Z,97849.97
2022-08-05T15:59:36.233Z,97838.47
2022-08-05T16:02:09.477Z,97851.59
2022-08-05T16:04:42.666Z,97842.53
2022-08-05T16:07:11.540Z,97839.28
2022-08-05T16:09:42.079Z,97840.53
2022-08-05T16:12:13.006Z,97837.69
2022-08-05T16:14:43.186Z,97844.06
2022-08-05T16:17:11.543Z,97846.75
2022-08-05T16:20:04.617Z,97839.97
2022-08-05T16:22:33.936Z,97836.28
2022-08-05T16:25:08.042Z,97823.69
2022-08-05T16:28:00.942Z,97829.31
2022-08-05T16:30:29.215Z,97843.38
2022-08-05T16:32:57.465Z,97836.78
2022-08-05T16:35:28.592Z,97840.84
2022-08-05T16:38:16.768Z,97837.91
2022-08-05T16:40:55.415Z,97836.41
2022-08-05T16:43:31.420Z,97825.69
2022-08-05T16:46:04.249Z,97823.09
2022-08-05T16:48:37.825Z,97821.53
2022-08-05T16:51:10.114Z,97823.59
2022-08-05T16:54:06.103Z,97831.28
2022-08-05T16:56:29.968Z,97831.59
2022-08-05T16:59:01.870Z,97827.19
2022-08-05T17:01:52.705Z,97828.75
2022-08-05T17:04:26.176Z,97832.84
2022-08-05T17:06:57.069Z,97824.13
2022-08-05T17:09:29.612Z,97831.34
2022-08-05T17:11:59.717Z,97824.13
2022-08-05T17:14:34.554Z,97827.19
2022-08-05T17:17:14.372Z,97834.66
2022-08-05T17:19:45.296Z,97829.69
2022-08-05T17:22:24.544Z,97831.16
2022-08-05T17:24:57.992Z,97826.81
2022-08-05T17:27:33.664Z,97825.97
2022-08-05T17:30:11.935Z,97826.06
2022-08-05T17:32:42.209Z,97828.69
2022-08-05T17:35:12.321Z,97824.59
2022-08-05T17:37:45.395Z,97828.75
2022-08-05T17:40:18.507Z,97833.22
2022-08-05T17:42:53.500Z,97832.91
2022-08-05T17:45:37.935Z,97839.13
2022-08-05T17:48:07.851Z,97832.03
2022-08-05T17:50:36.522Z,97832.84
2022-08-05T17:53:08.445Z,97833.63
2022-08-05T17:55:39.707Z,97823.50
2022-08-05T17:58:11.192Z,97822.72
2022-08-05T18:00:47.239Z,97824.25
2022-08-05T18:03:56.304Z,97826.34
2022-08-05T18:06:12.034Z,97823.56
2022-08-05T18:08:44.163Z,97824.81
2022-08-05T18:11:23.996Z,97819.81
2022-08-05T18:13:54.559Z,97824.16
2022-08-05T18:16:24.935Z,97820.00
2022-08-05T18:18:52.749Z,97819.03
2022-08-05T18:21:22.896Z,97824.84
2022-08-05T18:23:54.595Z,97821.09
2022-08-05T18:26:29.224Z,97827.31
2022-08-05T18:28:58.100Z,97825.75
2022-08-05T18:31:33.140Z,97828.50
2022-08-05T18:34:05.792Z,97829.38
2022-08-05T18:36:35.183Z,97820.03
2022-08-05T18:39:03.332Z,97829.94
2022-08-05T18:41:53.561Z,97820.03
2022-08-05T18:44:32.959Z,97827.16
2022-08-05T18:47:03.783Z,97826.84
2022-08-05T18:49:58.291Z,97832.19
2022-08-05T18:52:35.837Z,97835.38
2022-08-05T18:55:06.549Z,97831.34
2022-08-05T18:57:50.333Z,97844.34
2022-08-05T19:00:28.640Z,97832.66
2022-08-05T19:03:03.621Z,97836.16
2022-08-05T19:06:12.601Z,97838.91
2022-08-05T19:08:30.786Z,97839.16
2022-08-05T19:11:04.552Z,97839.75
2022-08-05T19:13:36.037Z,97833.31
2022-08-05T19:16:05.413Z,97841.25
2022-08-05T19:18:56.760Z,97849.13
2022-08-05T19:21:27.707Z,97852.19
2022-08-05T19:24:06.597Z,97844.78
2022-08-05T19:26:54.673Z,97848.13
2022-08-05T19:29:26.552Z,97846.38
2022-08-05T19:32:03.520Z,97837.84
2022-08-05T19:34:34.414Z,97840.34
2022-08-05T19:37:02.549Z,97851.06
2022-08-05T19:39:30.564Z,97842.13
2022-08-05T19:42:08.144Z,97850.19
2022-08-05T19:44:45.342Z,97848.38
2022-08-05T19:47:16.275Z,97851.03
2022-08-05T19:49:47.977Z,97837.88
2022-08-05T19:52:30.217Z,97864.59
2022-08-05T19:55:00.487Z,97856.25
2022-08-05T19:58:00.530Z,97851.13
2022-08-05T20:00:23.611Z,97841.66
2022-08-05T20:02:52.532Z,97844.72
2022-08-05T20:05:24.108Z,97837.00
2022-08-05T20:07:57.700Z,97841.97
2022-08-05T20:10:27.220Z,97834.34
2022-08-05T20:12:55.279Z,97837.88
2022-08-05T20:15:52.050Z,97838.06
2022-08-05T20:18:33.534Z,97837.56
2022-08-05T20:21:00.841Z,97842.94
2022-08-05T20:23:39.988Z,97843.13
2022-08-05T20:26:17.673Z,97837.38
2022-08-05T20:28:48.451Z,97842.41
2022-08-05T20:31:16.979Z,97838.59
2022-08-05T20:33:45.449Z,97838.25
2022-08-05T20:36:16.357Z,97843.22
2022-08-05T20:38:54.098Z,97847.47
2022-08-05T20:41:44.007Z,97844.34
2022-08-05T20:44:17.138Z,97844.88
2022-08-05T20:46:46.633Z,97844.88
2022-08-05T20:49:15.176Z,97846.09
2022-08-05T20:51:54.171Z,97842.44
2022-08-05T20:54:22.328Z,97834.25
2022-08-05T20:56:50.100Z,97839.50
2022-08-05T20:59:27.040Z,97847.13
2022-08-05T21:02:06.809Z,97845.16
2022-08-05T21:04:35.122Z,97844.69
2022-08-05T21:07:08.909Z,97848.69
2022-08-05T21:09:37.256Z,97840.72
2022-08-05T21:12:21.562Z,97841.06
2022-08-05T21:14:54.319Z,97850.94
2022-08-05T21:17:25.610Z,97851.75
2022-08-05T21:19:56.475Z,97848.69
2022-08-05T21:22:28.148Z,97851.03
2022-08-05T21:24:56.410Z,97858.06
2022-08-05T21:27:27.213Z,97866.94
2022-08-05T21:29:56.129Z,97860.88
2022-08-05T21:32:27.069Z,97859.38
2022-08-05T21:35:08.928Z,97860.50
2022-08-05T21:37:47.627Z,97852.84
2022-08-05T21:40:23.204Z,97866.31
2022-08-05T21:42:52.672Z,97863.16
2022-08-05T21:45:24.517Z,97853.03
2022-08-05T21:48:08.051Z,97861.75
2022-08-05T21:50:37.348Z,97858.22
2022-08-05T21:53:16.126Z,97861.13
2022-08-05T21:56:05.016Z,97850.88
2022-08-05T21:58:33.922Z,97854.06
2022-08-05T22:01:02.372Z,97860.06
2022-08-05T22:03:52.464Z,97862.28
2022-08-05T22:06:23.007Z,97861.44
2022-08-05T22:08:53.181Z,97860.38
2022-08-05T22:11:34.771Z,97862.50
2022-08-05T22:14:19.385Z,97862.69
2022-08-05T22:16:53.046Z,97860.88
2022-08-05T22:20:00.867Z,97864.53
2022-08-05T22:22:15.470Z,97860.25
2022-08-05T22:25:02.927Z,97867.28
2022-08-05T22:28:09.953Z,97864.22
2022-08-05T22:30:32.183Z,97862.31
2022-08-05T22:33:00.760Z,97861.13
2022-08-05T22:35:31.226Z,97860.25
2022-08-05T22:38:16.373Z,97858.84
2022-08-05T22:40:49.950Z,97856.81
2022-08-05T22:43:36.183Z,97851.44
2022-08-05T22:46:13.265Z,97860.69
2022-08-05T22:48:42.181Z,97839.25
2022-08-05T22:51:16.085Z,97852.00
2022-08-05T22:53:52.028Z,97856.13
2022-08-05T22:56:30.076Z,97859.34
2022-08-05T22:59:47.356Z,97859.72
2022-08-05T23:02:05.847Z,97859.59
2022-08-05T23:04:35.600Z,97860.69
2022-08-05T23:07:04.170Z,97854.28
2022-08-05T23:09:58.400Z,97851.06
2022-08-05T23:12:24.812Z,97855.03
2022-08-05T23:14:52.913Z,97854.19
2022-08-05T23:17:34.249Z,97858.53
2022-08-05T23:20:10.487Z,97861.72
2022-08-05T23:22:47.788Z,97860.41
2022-08-05T23:25:53.627Z,97853.47
2022-08-05T23:28:07.691Z,97855.44
2022-08-05T23:30:40.417Z,97852.25
2022-08-05T23:33:16.113Z,97850.44
2022-08-05T23:35:51.642Z,97849.59
2022-08-05T23:38:19.514Z,97847.38
2022-08-05T23:40:50.009Z,97844.50
2022-08-05T23:43:25.229Z,97836.69
2022-08-05T23:46:21.392Z,97844.97
2022-08-05T23:49:00.412Z,97838.31
2022-08-05T23:51:54.142Z,97834.41
2022-08-05T23:54:26.490Z,97837.22
2022-08-05T23:57:03.841Z,97835.94
